createdAt,value
2023-02-11T00:00:42.109Z,0.00
2023-02-11T00:01:42.101Z,0.00
2023-02-11T00:02:42.100Z,0.00
2023-02-11T00:03:42.223Z,0.00
2023-02-11T00:04:42.084Z,0.00
2023-02-11T00:05:42.058Z,0.00
2023-02-11T00:06:42.044Z,0.00
2023-02-11T00:07:42.110Z,0.00
2023-02-11T00:08:42.040Z,0.00
2023-02-11T00:09:42.016Z,0.00
2023-02-11T00:10:42.015Z,0.00
2023-02-11T00:11:42.023Z,0.00
2023-02-11T00:12:41.998Z,0.00
2023-02-11T00:13:41.976Z,0.00
2023-02-11T00:14:41.999Z,0.00
2023-02-11T00:15:41.968Z,0.00
2023-02-11T00:16:41.999Z,0.00
2023-02-11T00:17:41.931Z,0.00
2023-02-11T00:18:41.924Z,0.00
2023-02-11T00:19:41.927Z,0.00
2023-02-11T00:20:41.897Z,0.00
2023-02-11T00:21:41.885Z,0.00
2023-02-11T00:22:41.890Z,0.00
2023-02-11T00:23:41.887Z,0.00
2023-02-11T00:24:41.872Z,0.00
2023-02-11T00:25:41.855Z,0.00
2023-02-11T00:26:41.828Z,0.00
2023-02-11T00:27:41.849Z,0.00
2023-02-11T00:28:41.823Z,0.00
2023-02-11T00:29:41.810Z,0.00
2023-02-11T00:30:41.889Z,0.00
2023-02-11T00:31:41.948Z,0.00
2023-02-11T00:32:41.778Z,0.00
2023-02-11T00:33:41.764Z,0.00
2023-02-11T00:34:41.743Z,0.00
2023-02-11T00:35:41.763Z,0.00
2023-02-11T00:36:41.729Z,0.00
2023-02-11T00:37:41.718Z,0.00
2023-02-11T00:38:41.718Z,0.00
2023-02-11T00:39:41.686Z,0.00
2023-02-11T00:40:41.687Z,0.00
2023-02-11T00:41:41.687Z,0.00
2023-02-11T00:42:41.680Z,0.00
2023-02-11T00:43:48.660Z,0.00
2023-02-11T00:44:41.641Z,0.00
2023-02-11T00:45:41.626Z,0.00
2023-02-11T00:46:41.693Z,0.00
2023-02-11T00:47:41.615Z,0.00
2023-02-11T00:48:41.608Z,0.00
2023-02-11T00:49:41.600Z,0.00
2023-02-11T00:50:41.567Z,0.00
2023-02-11T00:51:41.578Z,0.00
2023-02-11T00:52:41.570Z,0.00
2023-02-11T00:53:41.572Z,0.00
2023-02-11T00:54:41.565Z,0.00
2023-02-11T00:55:41.523Z,0.00
2023-02-11T00:56:41.556Z,0.00
2023-02-11T00:57:41.497Z,0.00
2023-02-11T00:58:41.484Z,0.00
2023-02-11T00:59:41.475Z,0.00
2023-02-11T01:00:41.457Z,0.00
2023-02-11T01:01:41.518Z,0.00
2023-02-11T01:02:41.457Z,0.00
2023-02-11T01:03:41.429Z,0.00
2023-02-11T01:04:41.451Z,0.00
2023-02-11T01:05:41.486Z,0.00
2023-02-11T01:06:41.408Z,0.00
2023-02-11T01:07:41.445Z,0.00
2023-02-11T01:08:41.379Z,0.00
2023-02-11T01:09:41.383Z,0.00
2023-02-11T01:10:41.382Z,0.00
2023-02-11T01:11:41.341Z,0.00
2023-02-11T01:12:41.344Z,0.00
2023-02-11T01:13:41.331Z,0.00
2023-02-11T01:14:41.309Z,0.00
2023-02-11T01:15:41.417Z,0.00
2023-02-11T01:16:41.305Z,0.00
2023-02-11T01:17:41.279Z,0.00
2023-02-11T01:18:41.266Z,0.00
2023-02-11T01:19:41.254Z,0.00
2023-02-11T01:20:41.257Z,0.00
2023-02-11T01:21:41.231Z,0.00
2023-02-11T01:22:41.235Z,0.00
2023-02-11T01:23:41.251Z,0.00
2023-02-11T01:24:41.208Z,0.00
2023-02-11T01:25:41.209Z,0.00
2023-02-11T01:26:41.185Z,0.00
2023-02-11T01:27:41.181Z,0.00
2023-02-11T01:28:41.176Z,0.00
2023-02-11T01:29:41.162Z,0.00
2023-02-11T01:30:41.227Z,0.00
2023-02-11T01:31:41.176Z,0.00
2023-02-11T01:32:41.138Z,0.00
2023-02-11T01:33:41.112Z,0.00
2023-02-11T01:34:41.102Z,0.00
2023-02-11T01:35:41.096Z,0.00
2023-02-11T01:36:41.072Z,0.00
2023-02-11T01:37:41.059Z,0.00
2023-02-11T01:38:41.377Z,0.00
2023-02-11T01:39:41.062Z,0.00
2023-02-11T01:40:41.069Z,0.00
2023-02-11T01:41:41.027Z,0.00
2023-02-11T01:42:41.014Z,0.00
2023-02-11T01:43:40.994Z,0.00
2023-02-11T01:44:40.990Z,0.00
2023-02-11T01:45:40.988Z,0.00
2023-02-11T01:46:40.999Z,0.00
2023-02-11T01:47:40.975Z,0.00
2023-02-11T01:48:40.977Z,0.00
2023-02-11T01:49:40.937Z,0.00
2023-02-11T01:50:41.536Z,0.00
2023-02-11T01:51:40.904Z,0.00
2023-02-11T01:52:40.918Z,0.00
2023-02-11T01:53:40.901Z,0.00
2023-02-11T01:54:40.897Z,0.00
2023-02-11T01:55:40.880Z,0.00
2023-02-11T01:56:40.860Z,0.00
2023-02-11T01:57:40.858Z,0.00
2023-02-11T01:58:40.858Z,0.00
2023-02-11T01:59:40.827Z,0.00
2023-02-11T02:00:40.810Z,0.00
2023-02-11T02:01:40.869Z,0.00
2023-02-11T02:02:40.827Z,0.00
2023-02-11T02:03:40.853Z,0.00
2023-02-11T02:04:40.781Z,0.00
2023-02-11T02:05:40.757Z,0.00
2023-02-11T02:06:40.777Z,0.00
2023-02-11T02:07:40.747Z,0.00
2023-02-11T02:08:40.739Z,0.00
2023-02-11T02:09:40.751Z,0.00
2023-02-11T02:10:40.708Z,0.00
2023-02-11T02:11:40.769Z,0.00
2023-02-11T02:12:40.699Z,0.00
2023-02-11T02:13:40.664Z,0.00
2023-02-11T02:14:40.670Z,0.00
2023-02-11T02:15:40.705Z,0.00
2023-02-11T02:16:40.729Z,0.00
2023-02-11T02:17:40.638Z,0.00
2023-02-11T02:18:40.649Z,0.00
2023-02-11T02:19:40.612Z,0.00
2023-02-11T02:20:40.590Z,0.00
2023-02-11T02:21:40.581Z,0.00
2023-02-11T02:22:40.586Z,0.00
2023-02-11T02:23:40.554Z,0.00
2023-02-11T02:24:40.564Z,0.00
2023-02-11T02:25:40.534Z,0.00
2023-02-11T02:26:40.532Z,0.00
2023-02-11T02:27:40.532Z,0.00
2023-02-11T02:28:40.505Z,0.00
2023-02-11T02:29:40.501Z,0.00
2023-02-11T02:30:40.576Z,0.00
2023-02-11T02:31:40.564Z,0.00
2023-02-11T02:32:40.465Z,0.00
2023-02-11T02:33:40.461Z,0.00
2023-02-11T02:34:40.436Z,0.00
2023-02-11T02:35:40.449Z,0.00
2023-02-11T02:36:40.427Z,0.00
2023-02-11T02:37:40.421Z,0.00
2023-02-11T02:38:40.396Z,0.00
2023-02-11T02:39:40.385Z,0.00
2023-02-11T02:40:40.389Z,0.00
2023-02-11T02:41:40.374Z,0.00
2023-02-11T02:42:40.377Z,0.00
2023-02-11T02:43:40.387Z,0.00
2023-02-11T02:44:47.833Z,0.00
2023-02-11T02:45:40.348Z,0.00
2023-02-11T02:46:40.431Z,0.00
2023-02-11T02:47:40.316Z,0.00
2023-02-11T02:48:40.307Z,0.00
2023-02-11T02:49:40.273Z,0.00
2023-02-11T02:50:40.302Z,0.00
2023-02-11T02:51:40.269Z,0.00
2023-02-11T02:52:40.253Z,0.00
2023-02-11T02:53:40.229Z,0.00
2023-02-11T02:54:40.232Z,0.00
2023-02-11T02:55:40.207Z,0.00
2023-02-11T02:56:40.229Z,0.00
2023-02-11T02:57:40.198Z,0.00
2023-02-11T02:58:40.196Z,0.00
2023-02-11T02:59:40.185Z,0.00
2023-02-11T03:00:40.202Z,0.00
2023-02-11T03:01:40.153Z,0.00
2023-02-11T03:02:40.147Z,0.00
2023-02-11T03:03:40.263Z,0.00
2023-02-11T03:04:40.120Z,0.00
2023-02-11T03:05:40.098Z,0.00
2023-02-11T03:06:40.122Z,0.00
2023-02-11T03:07:40.095Z,0.00
2023-02-11T03:08:40.077Z,0.00
2023-02-11T03:09:40.055Z,0.00
2023-02-11T03:10:40.096Z,0.00
2023-02-11T03:11:40.034Z,0.00
2023-02-11T03:12:40.041Z,0.00
2023-02-11T03:13:40.049Z,0.00
2023-02-11T03:14:40.003Z,0.00
2023-02-11T03:15:40.014Z,0.00
2023-02-11T03:16:40.118Z,0.00
2023-02-11T03:17:39.995Z,0.00
2023-02-11T03:18:39.962Z,0.00
2023-02-11T03:19:40.541Z,0.00
2023-02-11T03:20:39.952Z,0.00
2023-02-11T03:21:39.951Z,0.00
2023-02-11T03:22:39.924Z,0.00
2023-02-11T03:23:39.923Z,0.00
2023-02-11T03:24:39.918Z,0.00
2023-02-11T03:25:39.905Z,0.00
2023-02-11T03:26:39.875Z,0.00
2023-02-11T03:27:39.869Z,0.00
2023-02-11T03:28:39.878Z,0.00
2023-02-11T03:29:39.864Z,0.00
2023-02-11T03:30:39.831Z,0.00
2023-02-11T03:31:40.001Z,0.00
2023-02-11T03:32:39.827Z,0.00
2023-02-11T03:33:39.808Z,0.00
2023-02-11T03:34:39.802Z,0.00
2023-02-11T03:35:39.801Z,0.00
2023-02-11T03:36:39.766Z,0.00
2023-02-11T03:37:39.763Z,0.00
2023-02-11T03:38:39.762Z,0.00
2023-02-11T03:39:39.739Z,0.00
2023-02-11T03:40:39.722Z,0.00
2023-02-11T03:41:39.708Z,0.00
2023-02-11T03:42:39.718Z,0.00
2023-02-11T03:43:39.687Z,0.00
2023-02-11T03:44:39.679Z,0.00
2023-02-11T03:45:39.708Z,0.00
2023-02-11T03:46:39.674Z,0.00
2023-02-11T03:47:39.676Z,0.00
2023-02-11T03:48:39.677Z,0.00
2023-02-11T03:49:39.635Z,0.00
2023-02-11T03:50:39.635Z,0.00
2023-02-11T03:51:39.601Z,0.00
2023-02-11T03:52:39.606Z,0.00
2023-02-11T03:53:39.591Z,0.00
2023-02-11T03:54:39.600Z,0.00
2023-02-11T03:55:39.581Z,0.00
2023-02-11T03:56:39.562Z,0.00
2023-02-11T03:57:39.563Z,0.00
2023-02-11T03:58:39.528Z,0.00
2023-02-11T03:59:39.512Z,0.00
2023-02-11T04:00:39.530Z,0.00
2023-02-11T04:01:39.504Z,0.00
2023-02-11T04:02:39.520Z,0.00
2023-02-11T04:03:39.505Z,0.00
2023-02-11T04:04:39.483Z,0.00
2023-02-11T04:05:39.449Z,0.00
2023-02-11T04:06:39.441Z,0.00
2023-02-11T04:07:39.475Z,0.00
2023-02-11T04:08:39.437Z,0.00
2023-02-11T04:09:39.408Z,0.00
2023-02-11T04:10:39.409Z,0.00
2023-02-11T04:11:39.399Z,0.00
2023-02-11T04:12:39.403Z,0.00
2023-02-11T04:13:39.393Z,0.00
2023-02-11T04:14:39.359Z,0.00
2023-02-11T04:15:39.354Z,0.00
2023-02-11T04:16:39.370Z,0.00
2023-02-11T04:17:39.327Z,0.00
2023-02-11T04:18:39.312Z,0.00
2023-02-11T04:19:39.355Z,0.00
2023-02-11T04:20:39.310Z,0.00
2023-02-11T04:21:39.305Z,0.00
2023-02-11T04:22:39.289Z,0.00
2023-02-11T04:23:39.283Z,0.00
2023-02-11T04:24:39.353Z,0.00
2023-02-11T04:25:39.241Z,0.00
2023-02-11T04:26:39.241Z,0.00
2023-02-11T04:27:39.231Z,0.00
2023-02-11T04:28:39.301Z,0.00
2023-02-11T04:29:39.203Z,0.00
2023-02-11T04:30:39.353Z,0.00
2023-02-11T04:31:39.199Z,0.00
2023-02-11T04:32:39.170Z,0.00
2023-02-11T04:33:39.181Z,0.00
2023-02-11T04:34:39.138Z,0.00
2023-02-11T04:35:39.144Z,0.00
2023-02-11T04:36:39.129Z,0.00
2023-02-11T04:37:39.103Z,0.00
2023-02-11T04:38:39.107Z,0.00
2023-02-11T04:39:39.084Z,0.00
2023-02-11T04:40:39.091Z,0.00
2023-02-11T04:41:39.081Z,0.00
2023-02-11T04:42:39.056Z,0.00
2023-02-11T04:43:39.050Z,0.00
2023-02-11T04:44:39.044Z,0.00
2023-02-11T04:47:17.117Z,0.00
2023-02-11T04:48:17.081Z,0.00
2023-02-11T04:49:17.073Z,0.00
2023-02-11T04:50:17.062Z,0.00
2023-02-11T04:51:17.060Z,0.00
2023-02-11T04:52:17.033Z,0.00
2023-02-11T04:53:17.030Z,0.00
2023-02-11T04:54:17.034Z,0.00
2023-02-11T04:55:17.012Z,0.00
2023-02-11T04:56:16.989Z,0.00
2023-02-11T04:57:16.997Z,0.00
2023-02-11T04:58:16.959Z,0.00
2023-02-11T04:59:16.971Z,0.00
2023-02-11T05:00:16.949Z,0.00
2023-02-11T05:01:16.993Z,0.00
2023-02-11T05:02:16.915Z,0.00
2023-02-11T05:03:16.919Z,0.00
2023-02-11T05:04:16.930Z,0.00
2023-02-11T05:05:16.903Z,0.00
2023-02-11T05:06:16.875Z,0.00
2023-02-11T05:07:16.906Z,0.00
2023-02-11T05:08:16.872Z,0.00
2023-02-11T05:09:16.886Z,0.00
2023-02-11T05:10:16.831Z,0.00
2023-02-11T05:11:16.831Z,0.00
2023-02-11T05:12:16.808Z,0.00
2023-02-11T05:13:16.803Z,0.00
2023-02-11T05:14:16.796Z,0.00
2023-02-11T05:15:16.801Z,0.00
2023-02-11T05:16:16.829Z,0.00
2023-02-11T05:17:16.756Z,0.00
2023-02-11T05:18:16.792Z,0.00
2023-02-11T05:19:16.734Z,0.00
2023-02-11T05:20:16.732Z,0.00
2023-02-11T05:21:16.721Z,0.00
2023-02-11T05:22:16.707Z,0.00
2023-02-11T05:23:16.713Z,0.00
2023-02-11T05:24:16.677Z,0.00
2023-02-11T05:25:16.703Z,0.00
2023-02-11T05:26:16.668Z,0.00
2023-02-11T05:27:16.708Z,0.00
2023-02-11T05:28:16.748Z,0.00
2023-02-11T05:29:16.631Z,0.00
2023-02-11T05:30:16.611Z,0.00
2023-02-11T05:31:16.643Z,0.00
2023-02-11T05:32:16.598Z,0.00
2023-02-11T05:33:16.601Z,0.00
2023-02-11T05:34:16.584Z,0.00
2023-02-11T05:35:16.576Z,0.00
2023-02-11T05:36:16.579Z,0.00
2023-02-11T05:37:16.633Z,0.00
2023-02-11T05:38:16.545Z,0.00
2023-02-11T05:39:16.538Z,0.00
2023-02-11T05:40:16.531Z,0.00
2023-02-11T05:41:16.520Z,0.00
2023-02-11T05:42:16.490Z,0.00
2023-02-11T05:43:16.479Z,0.00
2023-02-11T05:44:16.494Z,0.00
2023-02-11T05:45:16.475Z,0.00
2023-02-11T05:46:16.477Z,0.00
2023-02-11T05:47:16.450Z,0.00
2023-02-11T05:48:16.432Z,0.00
2023-02-11T05:49:16.408Z,0.00
2023-02-11T05:50:16.424Z,0.00
2023-02-11T05:51:16.391Z,0.00
2023-02-11T05:52:16.374Z,0.00
2023-02-11T05:53:16.368Z,0.00
2023-02-11T05:54:16.434Z,0.00
2023-02-11T05:55:16.374Z,0.00
2023-02-11T05:56:16.368Z,0.00
2023-02-11T05:57:16.326Z,0.00
2023-02-11T05:58:16.333Z,0.00
2023-02-11T05:59:16.329Z,0.00
2023-02-11T06:00:16.321Z,0.00
2023-02-11T06:01:16.281Z,0.00
2023-02-11T06:02:16.318Z,0.00
2023-02-11T06:03:16.298Z,0.00
2023-02-11T06:04:16.243Z,0.00
2023-02-11T06:05:16.249Z,0.00
2023-02-11T06:06:16.222Z,0.00
2023-02-11T06:07:16.216Z,0.00
2023-02-11T06:08:16.213Z,0.00
2023-02-11T06:09:16.215Z,0.00
2023-02-11T06:10:16.200Z,0.00
2023-02-11T06:11:16.190Z,0.00
2023-02-11T06:12:16.164Z,0.00
2023-02-11T06:13:16.179Z,0.00
2023-02-11T06:14:16.165Z,0.00
2023-02-11T06:15:16.130Z,0.00
2023-02-11T06:16:16.146Z,0.00
2023-02-11T06:17:16.130Z,0.00
2023-02-11T06:18:16.115Z,0.00
2023-02-11T06:19:16.093Z,0.00
2023-02-11T06:20:16.087Z,0.00
2023-02-11T06:21:16.063Z,0.00
2023-02-11T06:22:16.046Z,0.00
2023-02-11T06:23:16.050Z,0.00
2023-02-11T06:24:19.297Z,0.00
2023-02-11T06:25:16.020Z,4.00
2023-02-11T06:26:16.002Z,4.00
2023-02-11T06:27:16.039Z,0.00
2023-02-11T06:28:16.042Z,4.00
2023-02-11T06:29:15.975Z,0.00
2023-02-11T06:30:15.969Z,4.00
2023-02-11T06:31:16.113Z,4.00
2023-02-11T06:32:36.942Z,4.00
2023-02-11T06:33:15.962Z,4.00
2023-02-11T06:34:15.929Z,4.00
2023-02-11T06:35:15.924Z,8.00
2023-02-11T06:36:15.898Z,8.00
2023-02-11T06:37:15.888Z,12.00
2023-02-11T06:38:15.887Z,8.00
2023-02-11T06:39:15.891Z,12.00
2023-02-11T06:40:15.854Z,12.00
2023-02-11T06:41:15.858Z,16.00
2023-02-11T06:42:15.845Z,20.00
2023-02-11T06:43:15.856Z,20.00
2023-02-11T06:44:15.815Z,24.00
2023-02-11T06:45:15.807Z,24.00
2023-02-11T06:46:15.810Z,28.00
2023-02-11T06:47:22.788Z,28.00
2023-02-11T06:48:15.783Z,32.00
2023-02-11T06:49:15.780Z,32.00
2023-02-11T06:50:15.743Z,36.00
2023-02-11T06:51:15.769Z,40.00
2023-02-11T06:52:15.732Z,44.00
2023-02-11T06:53:15.711Z,48.00
2023-02-11T06:54:15.710Z,48.00
2023-02-11T06:55:15.714Z,60.00
2023-02-11T06:56:15.692Z,64.00
2023-02-11T06:57:15.677Z,68.00
2023-02-11T06:58:15.681Z,76.00
2023-02-11T06:59:15.672Z,80.00
2023-02-11T07:00:15.654Z,88.00
2023-02-11T07:01:15.632Z,88.00
2023-02-11T07:02:15.720Z,88.00
2023-02-11T07:03:15.716Z,88.00
2023-02-11T07:04:15.591Z,96.00
2023-02-11T07:05:15.608Z,96.00
2023-02-11T07:06:15.583Z,92.00
2023-02-11T07:07:15.580Z,88.00
2023-02-11T07:08:15.568Z,88.00
2023-02-11T07:09:15.546Z,88.00
2023-02-11T07:10:15.541Z,96.00
2023-02-11T07:11:15.526Z,108.00
2023-02-11T07:12:15.507Z,120.00
2023-02-11T07:13:15.500Z,120.00
2023-02-11T07:14:15.489Z,128.00
2023-02-11T07:15:15.506Z,136.00
2023-02-11T07:16:15.526Z,140.00
2023-02-11T07:17:15.456Z,148.00
2023-02-11T07:18:15.452Z,152.00
2023-02-11T07:19:15.455Z,160.00
2023-02-11T07:20:15.422Z,168.00
2023-02-11T07:21:15.430Z,168.00
2023-02-11T07:22:15.415Z,180.00
2023-02-11T07:23:15.412Z,200.00
2023-02-11T07:24:15.387Z,220.00
2023-02-11T07:25:15.380Z,236.00
2023-02-11T07:26:15.370Z,256.00
2023-02-11T07:27:15.350Z,268.00
2023-02-11T07:28:15.376Z,276.00
2023-02-11T07:29:15.340Z,280.00
2023-02-11T07:30:15.311Z,284.00
2023-02-11T07:31:15.447Z,296.00
2023-02-11T07:32:15.346Z,304.00
2023-02-11T07:33:15.281Z,316.00
2023-02-11T07:34:15.316Z,320.00
2023-02-11T07:35:15.270Z,324.00
2023-02-11T07:36:15.262Z,320.00
2023-02-11T07:37:15.255Z,324.00
2023-02-11T07:38:15.228Z,340.00
2023-02-11T07:39:15.227Z,348.00
2023-02-11T07:40:15.222Z,384.00
2023-02-11T07:41:15.191Z,404.00
2023-02-11T07:42:15.226Z,412.00
2023-02-11T07:43:15.188Z,404.00
2023-02-11T07:44:15.167Z,408.00
2023-02-11T07:45:15.152Z,400.00
2023-02-11T07:46:15.233Z,384.00
2023-02-11T07:47:15.158Z,396.00
2023-02-11T07:48:15.149Z,384.00
2023-02-11T07:49:15.150Z,396.00
2023-02-11T07:50:15.110Z,392.00
2023-02-11T07:51:15.098Z,412.00
2023-02-11T07:52:15.078Z,444.00
2023-02-11T07:53:15.135Z,480.00
2023-02-11T07:54:15.064Z,484.00
2023-02-11T07:55:15.039Z,504.00
2023-02-11T07:56:15.033Z,504.00
2023-02-11T07:57:15.028Z,496.00
2023-02-11T07:58:15.027Z,512.00
2023-02-11T07:59:15.035Z,504.00
2023-02-11T08:00:14.987Z,528.00
2023-02-11T08:01:15.036Z,568.00
2023-02-11T08:02:15.047Z,604.00
2023-02-11T08:03:14.971Z,636.00
2023-02-11T08:04:14.959Z,632.00
2023-02-11T08:05:14.930Z,664.00
2023-02-11T08:06:14.930Z,624.00
2023-02-11T08:07:14.908Z,604.00
2023-02-11T08:08:14.902Z,620.00
2023-02-11T08:09:14.908Z,652.00
2023-02-11T08:10:14.893Z,652.00
2023-02-11T08:11:14.884Z,640.00
2023-02-11T08:12:14.877Z,660.00
2023-02-11T08:13:14.852Z,652.00
2023-02-11T08:14:14.836Z,656.00
2023-02-11T08:15:14.837Z,656.00
2023-02-11T08:16:14.922Z,644.00
2023-02-11T08:17:14.836Z,664.00
2023-02-11T08:18:14.798Z,656.00
2023-02-11T08:19:14.806Z,692.00
2023-02-11T08:20:14.795Z,664.00
2023-02-11T08:21:14.778Z,660.00
2023-02-11T08:22:14.748Z,644.00
2023-02-11T08:23:14.749Z,660.00
2023-02-11T08:24:14.745Z,688.00
2023-02-11T08:25:14.713Z,684.00
2023-02-11T08:26:14.703Z,664.00
2023-02-11T08:27:14.703Z,680.00
2023-02-11T08:28:14.724Z,668.00
2023-02-11T08:29:14.795Z,668.00
2023-02-11T08:30:14.676Z,672.00
2023-02-11T08:31:14.794Z,668.00
2023-02-11T08:32:14.650Z,660.00
2023-02-11T08:33:14.629Z,672.00
2023-02-11T08:34:14.625Z,676.00
2023-02-11T08:35:14.623Z,668.00
2023-02-11T08:36:14.599Z,676.00
2023-02-11T08:37:14.620Z,668.00
2023-02-11T08:38:14.591Z,644.00
2023-02-11T08:39:19.949Z,636.00
2023-02-11T08:40:15.569Z,644.00
2023-02-11T08:41:14.535Z,636.00
2023-02-11T08:42:14.528Z,604.00
2023-02-11T08:43:14.520Z,596.00
2023-02-11T08:44:14.523Z,620.00
2023-02-11T08:45:14.505Z,624.00
2023-02-11T08:46:14.581Z,596.00
2023-02-11T08:47:14.489Z,608.00
2023-02-11T08:48:25.575Z,620.00
2023-02-11T08:49:14.457Z,656.00
2023-02-11T08:50:14.450Z,704.00
2023-02-11T08:51:14.466Z,672.00
2023-02-11T08:52:14.417Z,704.00
2023-02-11T08:53:14.424Z,732.00
2023-02-11T08:54:14.416Z,708.00
2023-02-11T08:55:14.388Z,700.00
2023-02-11T08:56:14.374Z,776.00
2023-02-11T08:57:14.374Z,832.00
2023-02-11T08:58:14.353Z,1000.00
2023-02-11T08:59:14.374Z,1060.00
2023-02-11T09:00:14.340Z,1108.00
2023-02-11T09:01:14.356Z,1116.00
2023-02-11T09:02:14.381Z,1188.00
2023-02-11T09:03:14.297Z,1156.00
2023-02-11T09:04:14.295Z,1232.00
2023-02-11T09:05:14.293Z,1220.00
2023-02-11T09:06:14.296Z,1248.00
2023-02-11T09:07:14.293Z,1240.00
2023-02-11T09:08:14.254Z,1200.00
2023-02-11T09:09:14.236Z,1176.00
2023-02-11T09:10:14.255Z,1184.00
2023-02-11T09:11:14.217Z,1320.00
2023-02-11T09:12:14.221Z,1336.00
2023-02-11T09:13:14.186Z,1320.00
2023-02-11T09:14:14.185Z,1292.00
2023-02-11T09:15:14.184Z,1324.00
2023-02-11T09:16:14.221Z,1356.00
2023-02-11T09:17:14.153Z,1360.00
2023-02-11T09:18:14.172Z,1432.00
2023-02-11T09:19:14.141Z,1456.00
2023-02-11T09:20:14.144Z,1508.00
2023-02-11T09:21:14.099Z,1452.00
2023-02-11T09:22:14.099Z,1372.00
2023-02-11T09:23:15.073Z,1344.00
2023-02-11T09:24:14.098Z,1308.00
2023-02-11T09:25:14.067Z,1296.00
2023-02-11T09:26:14.064Z,1216.00
2023-02-11T09:27:14.043Z,1148.00
2023-02-11T09:28:14.069Z,1136.00
2023-02-11T09:29:14.037Z,1212.00
2023-02-11T09:30:14.024Z,1304.00
2023-02-11T09:31:14.135Z,1332.00
2023-02-11T09:32:14.198Z,1296.00
2023-02-11T09:33:13.985Z,1264.00
2023-02-11T09:34:13.972Z,1196.00
2023-02-11T09:35:13.996Z,1204.00
2023-02-11T09:36:13.951Z,1192.00
2023-02-11T09:37:13.943Z,1236.00
2023-02-11T09:38:13.918Z,1288.00
2023-02-11T09:39:13.938Z,1300.00
2023-02-11T09:40:13.905Z,1336.00
2023-02-11T09:41:13.882Z,1320.00
2023-02-11T09:42:13.897Z,1344.00
2023-02-11T09:43:13.865Z,1348.00
2023-02-11T09:44:13.871Z,1324.00
2023-02-11T09:45:13.845Z,1388.00
2023-02-11T09:46:13.978Z,1496.00
2023-02-11T09:47:13.838Z,1432.00
2023-02-11T09:48:13.824Z,1432.00
2023-02-11T09:49:13.796Z,1508.00
2023-02-11T09:50:13.798Z,1516.00
2023-02-11T09:51:13.800Z,1432.00
2023-02-11T09:52:13.787Z,1492.00
2023-02-11T09:53:13.753Z,1608.00
2023-02-11T09:54:13.748Z,1644.00
2023-02-11T09:55:13.751Z,1544.00
2023-02-11T09:56:13.753Z,1536.00
2023-02-11T09:57:27.702Z,1580.00
2023-02-11T09:58:13.813Z,1504.00
2023-02-11T09:59:13.720Z,1452.00
2023-02-11T10:00:13.691Z,1432.00
2023-02-11T10:01:13.745Z,1360.00
2023-02-11T10:02:13.677Z,1432.00
2023-02-11T10:03:13.681Z,1464.00
2023-02-11T10:04:13.657Z,1440.00
2023-02-11T10:05:13.635Z,1472.00
2023-02-11T10:06:13.629Z,1428.00
2023-02-11T10:07:13.608Z,1476.00
2023-02-11T10:08:15.888Z,1628.00
2023-02-11T10:09:13.594Z,1708.00
2023-02-11T10:10:13.582Z,1616.00
2023-02-11T10:11:26.013Z,1500.00
2023-02-11T10:12:14.573Z,1620.00
2023-02-11T10:13:13.556Z,1580.00
2023-02-11T10:14:13.553Z,1484.00
2023-02-11T10:15:13.554Z,1588.00
2023-02-11T10:16:13.567Z,1568.00
2023-02-11T10:17:13.513Z,1448.00
2023-02-11T10:18:13.497Z,1408.00
2023-02-11T10:19:13.481Z,1520.00
2023-02-11T10:20:16.492Z,1532.00
2023-02-11T10:21:13.471Z,1536.00
2023-02-11T10:22:13.468Z,1436.00
2023-02-11T10:23:13.436Z,1500.00
2023-02-11T10:24:13.448Z,1480.00
2023-02-11T10:25:13.413Z,1404.00
2023-02-11T10:26:13.410Z,1384.00
2023-02-11T10:27:13.425Z,1356.00
2023-02-11T10:28:13.416Z,1408.00
2023-02-11T10:29:13.366Z,1428.00
2023-02-11T10:30:13.359Z,1372.00
2023-02-11T10:31:13.451Z,1320.00
2023-02-11T10:32:13.421Z,1292.00
2023-02-11T10:33:13.321Z,1308.00
2023-02-11T10:34:13.326Z,1248.00
2023-02-11T10:35:13.300Z,1192.00
2023-02-11T10:36:13.293Z,1248.00
2023-02-11T10:37:13.285Z,1252.00
2023-02-11T10:38:13.280Z,1232.00
2023-02-11T10:39:13.259Z,1192.00
2023-02-11T10:40:13.250Z,1248.00
2023-02-11T10:41:13.250Z,1308.00
2023-02-11T10:42:13.242Z,1316.00
2023-02-11T10:43:13.248Z,1368.00
2023-02-11T10:44:13.208Z,1364.00
2023-02-11T10:45:13.217Z,1264.00
2023-02-11T10:46:13.268Z,1312.00
2023-02-11T10:47:13.171Z,1352.00
2023-02-11T10:48:15.544Z,1384.00
2023-02-11T10:49:22.666Z,1460.00
2023-02-11T10:50:13.158Z,1452.00
2023-02-11T10:51:14.624Z,1452.00
2023-02-11T10:52:13.125Z,1352.00
2023-02-11T10:53:13.115Z,1288.00
2023-02-11T10:54:13.844Z,1284.00
2023-02-11T10:55:13.081Z,1292.00
2023-02-11T10:56:13.089Z,1216.00
2023-02-11T10:57:13.069Z,1272.00
2023-02-11T10:58:13.053Z,1208.00
2023-02-11T10:59:13.064Z,1216.00
2023-02-11T11:00:13.043Z,1272.00
2023-02-11T11:01:23.988Z,1292.00
2023-02-11T11:02:13.055Z,1444.00
2023-02-11T11:03:12.999Z,1432.00
2023-02-11T11:04:13.020Z,1592.00
2023-02-11T11:05:12.975Z,1560.00
2023-02-11T11:06:12.997Z,1532.00
2023-02-11T11:07:12.968Z,1536.00
2023-02-11T11:08:12.960Z,1564.00
2023-02-11T11:09:12.934Z,1624.00
2023-02-11T11:10:12.942Z,1724.00
2023-02-11T11:11:12.952Z,1688.00
2023-02-11T11:12:12.919Z,1660.00
2023-02-11T11:13:12.891Z,1776.00
2023-02-11T11:14:12.886Z,1800.00
2023-02-11T11:15:12.886Z,1708.00
2023-02-11T11:16:12.992Z,1652.00
2023-02-11T11:17:12.847Z,1676.00
2023-02-11T11:18:21.273Z,1764.00
2023-02-11T11:19:12.850Z,1836.00
2023-02-11T11:20:12.848Z,1932.00
2023-02-11T11:21:12.816Z,1972.00
2023-02-11T11:22:12.811Z,1984.00
2023-02-11T11:23:12.840Z,1928.00
2023-02-11T11:24:12.780Z,1928.00
2023-02-11T11:25:12.766Z,1908.00
2023-02-11T11:26:12.766Z,1852.00
2023-02-11T11:27:13.572Z,2008.00
2023-02-11T11:28:12.806Z,1916.00
2023-02-11T11:29:12.729Z,1932.00
2023-02-11T11:30:12.725Z,2080.00
2023-02-11T11:31:12.866Z,2244.00
2023-02-11T11:32:12.839Z,1960.00
2023-02-11T11:33:12.680Z,2000.00
2023-02-11T11:34:12.685Z,1944.00
2023-02-11T11:35:12.686Z,1924.00
2023-02-11T11:36:12.645Z,1728.00
2023-02-11T11:37:12.657Z,1788.00
2023-02-11T11:38:12.644Z,2012.00
2023-02-11T11:39:12.618Z,2004.00
2023-02-11T11:40:12.613Z,1872.00
2023-02-11T11:41:12.628Z,1724.00
2023-02-11T11:42:12.595Z,1988.00
2023-02-11T11:43:12.568Z,2220.00
2023-02-11T11:44:12.566Z,2252.00
2023-02-11T11:45:12.545Z,2040.00
2023-02-11T11:46:12.583Z,2020.00
2023-02-11T11:47:12.555Z,2052.00
2023-02-11T11:48:12.530Z,2128.00
2023-02-11T11:49:12.526Z,2184.00
2023-02-11T11:50:12.491Z,2064.00
2023-02-11T11:51:12.485Z,1964.00
2023-02-11T11:52:12.476Z,1928.00
2023-02-11T11:53:12.476Z,1948.00
2023-02-11T11:54:12.481Z,1920.00
2023-02-11T11:55:12.455Z,1856.00
2023-02-11T11:56:12.419Z,1860.00
2023-02-11T11:57:12.440Z,1676.00
2023-02-11T11:58:12.408Z,1752.00
2023-02-11T11:59:12.399Z,1900.00
2023-02-11T12:00:12.378Z,1876.00
2023-02-11T12:01:12.370Z,1740.00
2023-02-11T12:02:12.497Z,1736.00
2023-02-11T12:03:12.428Z,1784.00
2023-02-11T12:04:12.347Z,1808.00
2023-02-11T12:05:12.330Z,1684.00
2023-02-11T12:06:12.329Z,1704.00
2023-02-11T12:07:12.301Z,1804.00
2023-02-11T12:08:12.298Z,1640.00
2023-02-11T12:09:12.298Z,1528.00
2023-02-11T12:10:12.272Z,1472.00
2023-02-11T12:11:12.256Z,1564.00
2023-02-11T12:12:12.268Z,1544.00
2023-02-11T12:13:12.244Z,1548.00
2023-02-11T12:14:12.221Z,1576.00
2023-02-11T12:15:12.224Z,1508.00
2023-02-11T12:16:13.897Z,1476.00
2023-02-11T12:17:12.210Z,1412.00
2023-02-11T12:18:12.221Z,1364.00
2023-02-11T12:19:12.194Z,1392.00
2023-02-11T12:20:12.169Z,1332.00
2023-02-11T12:21:12.202Z,1192.00
2023-02-11T12:22:12.136Z,1192.00
2023-02-11T12:23:12.154Z,1232.00
2023-02-11T12:24:12.129Z,1224.00
2023-02-11T12:25:12.106Z,1204.00
2023-02-11T12:26:12.093Z,1228.00
2023-02-11T12:27:12.090Z,1300.00
2023-02-11T12:28:12.147Z,1264.00
2023-02-11T12:29:12.063Z,1340.00
2023-02-11T12:30:12.051Z,1532.00
2023-02-11T12:31:13.201Z,1736.00
2023-02-11T12:32:12.126Z,1884.00
2023-02-11T12:33:12.017Z,1800.00
2023-02-11T12:34:12.021Z,1736.00
2023-02-11T12:35:12.017Z,1696.00
2023-02-11T12:36:11.997Z,1664.00
2023-02-11T12:37:11.976Z,1720.00
2023-02-11T12:38:11.966Z,1788.00
2023-02-11T12:39:11.975Z,1808.00
2023-02-11T12:40:11.966Z,1832.00
2023-02-11T12:41:11.937Z,1992.00
2023-02-11T12:42:11.935Z,2192.00
2023-02-11T12:43:11.932Z,2216.00
2023-02-11T12:44:11.908Z,2392.00
2023-02-11T12:45:11.888Z,2620.00
2023-02-11T12:46:11.977Z,2880.00
2023-02-11T12:47:11.873Z,2788.00
2023-02-11T12:48:11.854Z,2696.00
2023-02-11T12:49:11.856Z,2688.00